Messwerte Mountain Village

Temperatur

Temperatur
°C
1593741600 18.00 18.00 11
1593745200 19.00 19.00 10
1593748800 20.00 20.00 10
1593752400 21.00 21.00 9
1593756000 22.00 22.00 10
1593759600 23.00 23.00
1593763200 0.00 0.00 9
1593766800 1.00 1.00 9
1593770400 2.00 2.00 8
1593774000 3.00 3.00 8
1593777600 4.00 4.00 7
1593781200 5.00 5.00 7
1593784800 6.00 6.00 7
1593788400 7.00 7.00 7
1593792000 8.00 8.00 7
1593795600 9.00 9.00 8
1593799200 10.00 10.00 8
1593802800 11.00 11.00 9
1593806400 12.00 12.00
1593810000 13.00 13.00
1593813600 14.00 14.00 9
1593817200 15.00 15.00 9
1593820800 16.00 16.00 10
1593824400 17.00 17.00

Wir danken unserem Partner:

Aktuellste Messwerte

Wettercharakter
Wetter: bedeckt
Temperatur
11 °C
Feuchtigkeit
70 %
Wind
5 km/h, -
Luftdruck
1022 hPa
Messzeit: 3. Juli 2020, 17.00Datenquelle: METAR

Weitere Messstationen in der Nähe

Messstation Temperatur Entfernung
St. Mary's 11 °C 20 km
Marshall 12 °C 90 km
Scammon Bay 11 °C 103 km
Cape Romanzoff 9 °C 128 km
Russian Mission 13 °C 128 km
Hooper Bay 11 °C 145 km
St Michael 10 °C 174 km

Wind

Windrichtung Böen Mittelwind
° km/h km/h
1593741600 18.00 17.00 - 18.00 240° 30 20
1593745200 19.00 18.00 - 19.00 240° 30 20
1593748800 20.00 19.00 - 20.00 250° 25 15
1593752400 21.00 20.00 - 21.00 230° 15
1593756000 22.00 21.00 - 22.00 230° 15
1593759600 23.00 22.00 - 23.00
1593763200 0.00 23.00 - 0.00 270° 15
1593766800 1.00 0.00 - 1.00 310° 15
1593770400 2.00 1.00 - 2.00 290° 15
1593774000 3.00 2.00 - 3.00 320° 10
1593777600 4.00 3.00 - 4.00 330° 5
1593781200 5.00 4.00 - 5.00 230° 5
1593784800 6.00 5.00 - 6.00 260° 10
1593788400 7.00 6.00 - 7.00 250° 10
1593792000 8.00 7.00 - 8.00 230° 5
1593795600 9.00 8.00 - 9.00 220° 5
1593799200 10.00 9.00 - 10.00 230° 10
1593802800 11.00 10.00 - 11.00 190° 10
1593806400 12.00 11.00 - 12.00
1593810000 13.00 12.00 - 13.00
1593813600 14.00 13.00 - 14.00 0
1593817200 15.00 14.00 - 15.00 120° 5
1593820800 16.00 15.00 - 16.00 200° 10
1593824400 17.00 16.00 - 17.00

Ihre Wetterstation

Fehlt Ihre Wetterstation auf unserem Portal?

Schreiben Sie an network@meteonews.ch

Klima

Wann ist es am wärmsten? Wann regnet es am wenigsten? Unsere Klimadaten geben Auskunft.